createdAt,value
2023-05-13T00:00:29.079Z,13.30
2023-05-13T00:02:57.187Z,14.90
2023-05-13T00:05:25.425Z,13.70
2023-05-13T00:07:53.268Z,11.20
2023-05-13T00:10:22.846Z,10.90
2023-05-13T00:12:51.413Z,12.03
2023-05-13T00:15:19.408Z,19.57
2023-05-13T00:17:47.249Z,11.50
2023-05-13T00:20:15.184Z,10.70
2023-05-13T00:22:46.055Z,11.00
2023-05-13T00:25:13.852Z,12.43
2023-05-13T00:27:42.998Z,11.87
2023-05-13T00:30:12.807Z,15.97
2023-05-13T00:32:40.736Z,12.67
2023-05-13T00:35:10.718Z,11.60
2023-05-13T00:37:38.521Z,15.10
2023-05-13T00:40:07.890Z,10.50
2023-05-13T00:42:35.733Z,10.07
2023-05-13T00:45:05.839Z,9.90
2023-05-13T00:47:34.067Z,10.57
2023-05-13T00:50:05.551Z,9.77
2023-05-13T00:52:33.356Z,13.17
2023-05-13T00:55:01.215Z,10.40
2023-05-13T00:57:29.195Z,10.73
2023-05-13T00:59:57.163Z,11.23
2023-05-13T01:02:30.374Z,13.67
2023-05-13T01:05:12.285Z,10.00
2023-05-13T01:07:47.730Z,9.20
2023-05-13T01:10:22.078Z,13.07
2023-05-13T01:12:52.454Z,9.83
2023-05-13T01:15:23.257Z,12.80
2023-05-13T01:17:56.781Z,10.27
2023-05-13T01:20:25.311Z,10.70
2023-05-13T01:22:54.676Z,11.70
2023-05-13T01:25:22.718Z,10.80
2023-05-13T01:27:51.166Z,10.87
2023-05-13T01:30:19.647Z,10.00
2023-05-13T01:32:49.258Z,14.70
2023-05-13T01:35:18.700Z,10.67
2023-05-13T01:37:47.634Z,9.87
2023-05-13T01:40:31.324Z,10.10
2023-05-13T01:43:02.351Z,11.20
2023-05-13T01:45:30.815Z,10.90
2023-05-13T01:47:59.664Z,10.97
2023-05-13T01:50:34.166Z,11.50
2023-05-13T01:53:05.217Z,9.93
2023-05-13T01:55:34.518Z,12.00
2023-05-13T01:58:04.651Z,10.57
2023-05-13T02:00:32.757Z,9.60
2023-05-13T02:03:00.743Z,9.37
2023-05-13T02:05:28.726Z,10.80
2023-05-13T02:07:57.459Z,9.40
2023-05-13T02:10:25.320Z,10.57
2023-05-13T02:12:55.461Z,10.80
2023-05-13T02:15:23.463Z,11.30
2023-05-13T02:17:51.493Z,9.53
2023-05-13T02:20:20.686Z,11.50
2023-05-13T02:22:48.647Z,9.27
2023-05-13T02:25:16.553Z,8.97
2023-05-13T02:27:44.507Z,10.00
2023-05-13T02:30:14.212Z,10.70
2023-05-13T02:32:44.015Z,12.47
2023-05-13T02:35:12.064Z,14.40
2023-05-13T02:37:40.537Z,16.30
2023-05-13T02:40:11.161Z,16.27
2023-05-13T02:42:39.199Z,22.70
2023-05-13T02:45:08.139Z,19.67
2023-05-13T02:47:40.503Z,21.53
2023-05-13T02:50:10.091Z,29.70
2023-05-13T02:52:40.118Z,25.37
2023-05-13T02:55:09.549Z,27.93
2023-05-13T02:57:38.607Z,29.00
2023-05-13T03:00:07.688Z,26.77
2023-05-13T03:02:37.174Z,25.27
2023-05-13T03:05:07.624Z,24.33
2023-05-13T03:07:35.749Z,21.90
2023-05-13T03:10:03.632Z,18.40
2023-05-13T03:12:31.499Z,16.70
2023-05-13T03:14:59.656Z,22.20
2023-05-13T03:17:30.820Z,14.67
2023-05-13T03:19:59.277Z,15.10
2023-05-13T03:22:28.637Z,10.67
2023-05-13T03:24:57.248Z,11.73
2023-05-13T03:27:28.488Z,11.17
2023-05-13T03:29:57.385Z,9.73
2023-05-13T03:32:30.569Z,16.33
2023-05-13T03:35:00.893Z,10.97
2023-05-13T03:37:31.534Z,9.63
2023-05-13T03:39:59.606Z,9.70
2023-05-13T03:42:27.914Z,12.70
2023-05-13T03:44:57.596Z,9.93
2023-05-13T03:47:25.725Z,9.03
2023-05-13T03:49:54.309Z,9.10
2023-05-13T03:52:22.177Z,10.27
2023-05-13T03:54:54.378Z,8.67
2023-05-13T03:57:22.237Z,9.00
2023-05-13T03:59:50.607Z,10.80
2023-05-13T04:02:21.750Z,9.60
2023-05-13T04:04:49.792Z,9.30
2023-05-13T04:07:17.685Z,9.03
2023-05-13T04:09:45.516Z,10.00
2023-05-13T04:12:15.758Z,10.70
2023-05-13T04:14:43.693Z,9.33
2023-05-13T04:17:11.574Z,8.37
2023-05-13T04:19:39.401Z,10.33
2023-05-13T04:22:10.012Z,15.90
2023-05-13T04:24:37.850Z,8.80
2023-05-13T04:27:06.311Z,15.80
2023-05-13T04:29:35.571Z,10.73
2023-05-13T04:32:03.638Z,7.50
2023-05-13T04:34:31.707Z,8.77
2023-05-13T04:36:59.630Z,6.90
2023-05-13T04:39:27.481Z,6.17
2023-05-13T04:41:55.558Z,6.97
2023-05-13T04:44:23.481Z,6.90
2023-05-13T04:46:52.803Z,7.20
2023-05-13T04:49:20.913Z,7.73
2023-05-13T04:51:49.641Z,8.93
2023-05-13T04:54:18.377Z,9.43
2023-05-13T04:56:49.341Z,6.60
2023-05-13T04:59:17.209Z,8.50
2023-05-13T05:01:45.066Z,7.57
2023-05-13T05:04:14.509Z,7.03
2023-05-13T05:06:43.200Z,7.57
2023-05-13T05:09:11.480Z,7.20
2023-05-13T05:11:39.553Z,6.67
2023-05-13T05:14:07.538Z,6.80
2023-05-13T05:16:35.487Z,7.00
2023-05-13T05:19:04.415Z,6.77
2023-05-13T05:21:34.077Z,6.63
2023-05-13T05:24:02.903Z,7.97
2023-05-13T05:26:30.752Z,7.30
2023-05-13T05:28:58.908Z,7.57
2023-05-13T05:31:28.425Z,7.00
2023-05-13T05:33:57.959Z,6.77
2023-05-13T05:36:25.838Z,7.13
2023-05-13T05:38:55.031Z,7.00
2023-05-13T05:41:26.982Z,7.07
2023-05-13T05:43:55.335Z,7.37
2023-05-13T05:46:23.911Z,7.00
2023-05-13T05:48:52.373Z,6.63
2023-05-13T05:51:21.605Z,7.30
2023-05-13T05:53:50.173Z,7.13
2023-05-13T05:56:19.830Z,6.40
2023-05-13T05:58:47.760Z,6.60
2023-05-13T06:01:17.269Z,6.67
2023-05-13T06:03:45.913Z,11.30
2023-05-13T06:06:13.875Z,6.40
2023-05-13T06:08:41.826Z,5.73
2023-05-13T06:11:09.691Z,7.53
2023-05-13T06:13:39.310Z,12.33
2023-05-13T06:16:07.761Z,9.43
2023-05-13T06:18:35.791Z,5.77
2023-05-13T06:21:04.920Z,7.33
2023-05-13T06:23:32.797Z,6.10
2023-05-13T06:26:00.641Z,4.63
2023-05-13T06:28:28.478Z,7.17
2023-05-13T06:30:57.796Z,6.03
2023-05-13T06:33:25.765Z,5.20
2023-05-13T06:35:53.860Z,6.27
2023-05-13T06:38:23.282Z,11.27
2023-05-13T06:40:55.789Z,7.70
2023-05-13T06:43:30.006Z,4.37
2023-05-13T06:46:01.899Z,5.07
2023-05-13T06:48:30.394Z,3.77
2023-05-13T06:50:58.240Z,4.07
2023-05-13T06:53:26.327Z,4.00
2023-05-13T06:55:54.233Z,4.07
2023-05-13T06:58:22.135Z,4.40
2023-05-13T07:00:50.168Z,4.00
2023-05-13T07:03:19.519Z,4.00
2023-05-13T07:05:48.011Z,3.73
2023-05-13T07:08:18.106Z,4.50
2023-05-13T07:10:46.369Z,3.77
2023-05-13T07:13:14.360Z,3.70
2023-05-13T07:15:42.606Z,3.87
2023-05-13T07:18:10.558Z,3.70
2023-05-13T07:20:40.047Z,2.90
2023-05-13T07:23:07.954Z,3.37
2023-05-13T07:25:35.830Z,3.50
2023-05-13T07:28:04.316Z,3.00
2023-05-13T07:30:32.343Z,3.37
2023-05-13T07:33:02.930Z,3.33
2023-05-13T07:35:30.883Z,3.13
2023-05-13T07:38:07.053Z,2.63
2023-05-13T07:40:35.176Z,2.50
2023-05-13T07:43:03.128Z,3.23
2023-05-13T07:45:31.046Z,2.80
2023-05-13T07:47:59.072Z,4.13
2023-05-13T07:50:27.256Z,2.30
2023-05-13T07:52:55.142Z,2.40
2023-05-13T07:55:24.542Z,2.20
2023-05-13T07:57:52.449Z,2.40
2023-05-13T08:00:20.646Z,4.23
2023-05-13T08:02:48.570Z,5.13
2023-05-13T08:05:16.903Z,2.40
2023-05-13T08:07:44.751Z,2.83
2023-05-13T08:10:12.635Z,3.43
2023-05-13T08:12:41.872Z,2.90
2023-05-13T08:15:12.008Z,2.30
2023-05-13T08:17:39.944Z,3.73
2023-05-13T08:20:08.675Z,6.00
2023-05-13T08:22:36.567Z,1.90
2023-05-13T08:25:05.560Z,4.00
2023-05-13T08:27:33.595Z,3.43
2023-05-13T08:30:02.848Z,2.50
2023-05-13T08:32:30.866Z,2.37
2023-05-13T08:34:59.369Z,2.60
2023-05-13T08:37:27.414Z,2.20
2023-05-13T08:39:56.017Z,2.57
2023-05-13T08:42:24.046Z,2.37
2023-05-13T08:44:53.380Z,3.43
2023-05-13T08:47:28.091Z,1.90
2023-05-13T08:49:56.505Z,2.93
2023-05-13T08:52:24.393Z,8.90
2023-05-13T08:54:52.292Z,2.20
2023-05-13T08:57:20.191Z,2.17
2023-05-13T08:59:48.076Z,7.63
2023-05-13T09:02:16.076Z,2.20
2023-05-13T09:04:46.092Z,1.97
2023-05-13T09:07:14.051Z,3.23
2023-05-13T09:09:41.997Z,3.53
2023-05-13T09:12:10.600Z,2.87
2023-05-13T09:14:39.951Z,2.40
2023-05-13T09:17:08.328Z,2.20
2023-05-13T09:19:36.942Z,2.40
2023-05-13T09:22:06.365Z,2.80
2023-05-13T09:24:34.260Z,5.17
2023-05-13T09:27:02.168Z,2.83
2023-05-13T09:29:30.158Z,2.27
2023-05-13T09:31:59.816Z,2.43
2023-05-13T09:34:29.572Z,5.10
2023-05-13T09:37:01.513Z,2.73
2023-05-13T09:39:33.832Z,4.57
2023-05-13T09:42:04.903Z,2.70
2023-05-13T09:44:34.001Z,4.93
2023-05-13T09:47:03.440Z,3.00
2023-05-13T09:49:32.702Z,7.00
2023-05-13T09:52:00.574Z,4.00
2023-05-13T09:54:37.277Z,3.27
2023-05-13T09:57:08.178Z,3.00
2023-05-13T09:59:36.344Z,3.50
2023-05-13T10:02:06.721Z,2.63
2023-05-13T10:04:34.929Z,3.10
2023-05-13T10:07:05.310Z,3.97
2023-05-13T10:09:37.962Z,3.27
2023-05-13T10:12:08.662Z,3.93
2023-05-13T10:14:38.292Z,4.40
2023-05-13T10:17:07.853Z,2.40
2023-05-13T10:19:35.882Z,2.70
2023-05-13T10:22:04.204Z,2.23
2023-05-13T10:24:32.721Z,4.10
2023-05-13T10:27:02.898Z,4.27
2023-05-13T10:29:30.945Z,3.90
2023-05-13T10:31:59.977Z,2.80
2023-05-13T10:34:28.698Z,2.63
2023-05-13T10:37:08.227Z,2.83
2023-05-13T10:40:31.656Z,2.50
2023-05-13T10:43:11.348Z,2.80
2023-05-13T10:45:39.294Z,3.60
2023-05-13T10:48:08.434Z,7.50
2023-05-13T10:50:39.011Z,2.03
2023-05-13T10:53:11.263Z,2.83
2023-05-13T10:55:45.890Z,2.70
2023-05-13T10:58:16.551Z,2.93
2023-05-13T11:00:46.087Z,6.00
2023-05-13T11:03:15.950Z,3.73
2023-05-13T11:05:47.223Z,2.70
2023-05-13T11:08:39.528Z,3.23
2023-05-13T11:11:33.104Z,3.80
2023-05-13T11:14:17.626Z,2.63
2023-05-13T11:16:53.559Z,2.77
2023-05-13T11:19:23.708Z,6.10
2023-05-13T11:21:53.617Z,2.60
2023-05-13T11:24:22.805Z,3.70
2023-05-13T11:26:52.886Z,3.83
2023-05-13T11:29:32.388Z,3.20
2023-05-13T11:32:01.567Z,3.30
2023-05-13T11:34:29.914Z,6.77
2023-05-13T11:37:00.536Z,3.73
2023-05-13T11:39:28.609Z,4.27
2023-05-13T11:41:57.389Z,5.60
2023-05-13T11:44:26.811Z,7.67
2023-05-13T11:46:57.663Z,6.63
2023-05-13T11:49:36.343Z,8.90
2023-05-13T11:52:05.778Z,7.03
2023-05-13T11:54:33.725Z,7.70
2023-05-13T11:57:01.888Z,6.10
2023-05-13T11:59:38.598Z,4.77
2023-05-13T12:02:14.757Z,7.77
2023-05-13T12:04:42.688Z,3.67
2023-05-13T12:07:12.592Z,2.90
2023-05-13T12:09:40.510Z,4.93
2023-05-13T12:12:08.600Z,3.93
2023-05-13T12:14:36.520Z,5.53
2023-05-13T12:17:04.729Z,3.30
2023-05-13T12:19:33.941Z,3.83
2023-05-13T12:22:02.965Z,5.03
2023-05-13T12:24:34.822Z,2.93
2023-05-13T12:27:08.629Z,2.90
2023-05-13T12:29:42.479Z,3.63
2023-05-13T12:32:11.905Z,2.70
2023-05-13T12:34:41.142Z,2.60
2023-05-13T12:37:13.666Z,2.60
2023-05-13T12:39:42.744Z,4.03
2023-05-13T12:42:17.589Z,2.57
2023-05-13T12:44:46.342Z,3.40
2023-05-13T12:47:15.762Z,3.93
2023-05-13T12:49:55.206Z,4.43
2023-05-13T12:52:23.203Z,6.60
2023-05-13T12:54:51.122Z,3.20
2023-05-13T12:57:20.593Z,3.50
2023-05-13T12:59:48.564Z,3.60
2023-05-13T13:02:16.562Z,5.30
2023-05-13T13:04:44.407Z,4.70
2023-05-13T13:07:14.722Z,3.00
2023-05-13T13:09:42.731Z,3.10
2023-05-13T13:12:10.559Z,2.73
2023-05-13T13:14:38.855Z,4.97
2023-05-13T13:17:07.121Z,2.80
2023-05-13T13:19:35.082Z,6.33
2023-05-13T13:22:03.135Z,6.60
2023-05-13T13:24:32.639Z,9.00
2023-05-13T13:27:00.867Z,4.50
2023-05-13T13:29:29.184Z,4.57
2023-05-13T13:31:57.044Z,3.43
2023-05-13T13:34:27.683Z,3.73
2023-05-13T13:36:55.941Z,3.90
2023-05-13T13:39:23.763Z,14.30
2023-05-13T13:41:52.985Z,6.90
2023-05-13T13:44:20.836Z,5.53
2023-05-13T13:46:48.670Z,5.03
2023-05-13T13:49:23.738Z,6.67
2023-05-13T13:51:52.499Z,3.20
2023-05-13T13:54:20.644Z,4.63
2023-05-13T13:56:49.228Z,3.67
2023-05-13T13:59:19.277Z,7.03
2023-05-13T14:01:47.514Z,3.00
2023-05-13T14:04:17.202Z,3.43
2023-05-13T14:06:46.250Z,3.60
2023-05-13T14:09:14.096Z,2.83
2023-05-13T14:11:42.065Z,2.43
2023-05-13T14:14:09.931Z,3.00
2023-05-13T14:16:39.181Z,3.20
2023-05-13T14:19:07.146Z,2.73
2023-05-13T14:21:35.157Z,3.40
2023-05-13T14:24:03.025Z,3.33
2023-05-13T14:26:30.920Z,2.70
2023-05-13T14:28:58.764Z,4.83
2023-05-13T14:31:26.655Z,2.87
2023-05-13T14:33:55.921Z,3.20
2023-05-13T14:36:26.521Z,4.33
2023-05-13T14:38:54.611Z,3.00
2023-05-13T14:41:23.220Z,2.47
2023-05-13T14:43:51.118Z,6.73
2023-05-13T14:46:19.044Z,2.70
2023-05-13T14:48:46.949Z,6.43
2023-05-13T14:51:16.213Z,3.37
2023-05-13T14:53:44.138Z,6.60
2023-05-13T14:56:12.053Z,3.40
2023-05-13T14:58:39.974Z,2.43
2023-05-13T15:01:07.889Z,5.57
2023-05-13T15:03:35.861Z,2.60
2023-05-13T15:06:03.835Z,2.50
2023-05-13T15:08:33.128Z,4.73
2023-05-13T15:11:03.756Z,3.83
2023-05-13T15:13:35.228Z,2.90
2023-05-13T15:16:03.564Z,2.90
2023-05-13T15:18:31.640Z,2.60
2023-05-13T15:20:59.615Z,2.70
2023-05-13T15:23:27.462Z,2.50
2023-05-13T15:25:57.178Z,2.50
2023-05-13T15:28:25.043Z,3.23
2023-05-13T15:30:53.402Z,2.83
2023-05-13T15:33:21.478Z,2.93
2023-05-13T15:35:49.335Z,3.20
2023-05-13T15:38:17.275Z,2.43
2023-05-13T15:40:47.291Z,5.10
2023-05-13T15:43:16.528Z,2.93
2023-05-13T15:45:44.423Z,2.90
2023-05-13T15:48:12.338Z,2.60
2023-05-13T15:50:40.297Z,3.80
2023-05-13T15:53:08.165Z,4.70
2023-05-13T15:55:37.429Z,2.43
2023-05-13T15:58:05.306Z,2.73
2023-05-13T16:00:34.566Z,6.40
2023-05-13T16:03:02.712Z,2.80
2023-05-13T16:05:30.756Z,2.77
2023-05-13T16:07:58.665Z,5.20
2023-05-13T16:10:26.557Z,3.23
2023-05-13T16:12:54.434Z,3.07
2023-05-13T16:15:22.331Z,2.83
2023-05-13T16:17:51.731Z,2.57
2023-05-13T16:20:22.976Z,2.93
2023-05-13T16:22:51.062Z,2.60
2023-05-13T16:25:18.932Z,2.40
2023-05-13T16:27:47.222Z,5.57
2023-05-13T16:30:15.291Z,4.70
2023-05-13T16:32:43.496Z,2.50
2023-05-13T16:35:12.836Z,2.50
2023-05-13T16:37:41.186Z,2.80
2023-05-13T16:40:10.569Z,5.00
2023-05-13T16:42:38.475Z,3.00
2023-05-13T16:45:07.409Z,2.87
2023-05-13T16:47:35.621Z,3.00
2023-05-13T16:50:03.612Z,3.03
2023-05-13T16:52:34.130Z,3.40
2023-05-13T16:55:02.072Z,3.73
2023-05-13T16:57:29.936Z,3.63
2023-05-13T16:59:57.806Z,3.00
2023-05-13T17:02:26.463Z,2.73
2023-05-13T17:04:54.368Z,5.23
2023-05-13T17:07:22.228Z,2.90
2023-05-13T17:09:51.516Z,2.90
2023-05-13T17:12:19.362Z,2.97
2023-05-13T17:14:47.471Z,3.20
2023-05-13T17:17:15.429Z,3.03
2023-05-13T17:19:43.388Z,3.87
2023-05-13T17:22:11.272Z,3.13
2023-05-13T17:24:39.869Z,3.93
2023-05-13T17:27:09.664Z,3.13
2023-05-13T17:29:38.430Z,7.77
2023-05-13T17:32:08.350Z,3.23
2023-05-13T17:34:36.322Z,3.43
2023-05-13T17:37:04.178Z,2.87
2023-05-13T17:39:32.713Z,4.40
2023-05-13T17:42:00.595Z,6.50
2023-05-13T17:44:30.020Z,3.23
2023-05-13T17:46:58.942Z,3.83
2023-05-13T17:49:27.078Z,3.40
2023-05-13T17:51:55.031Z,2.70
2023-05-13T17:54:22.882Z,2.80
2023-05-13T17:56:51.064Z,3.90
2023-05-13T17:59:19.289Z,3.40
2023-05-13T18:01:52.181Z,3.40
2023-05-13T18:04:20.330Z,5.07
2023-05-13T18:06:48.207Z,2.90
2023-05-13T18:09:16.071Z,3.50
2023-05-13T18:11:44.292Z,3.40
2023-05-13T18:14:12.198Z,3.00
2023-05-13T18:16:40.124Z,3.20
2023-05-13T18:19:09.502Z,2.93
2023-05-13T18:21:37.411Z,5.40
2023-05-13T18:24:06.001Z,4.83
2023-05-13T18:26:34.025Z,4.53
2023-05-13T18:29:01.881Z,3.27
2023-05-13T18:31:29.780Z,3.00
2023-05-13T18:33:57.622Z,2.83
2023-05-13T18:36:26.877Z,2.80
2023-05-13T18:38:57.789Z,7.07
2023-05-13T18:41:25.847Z,2.97
2023-05-13T18:43:53.748Z,4.13
2023-05-13T18:46:22.001Z,3.60
2023-05-13T18:48:50.100Z,3.40
2023-05-13T18:51:18.027Z,3.43
2023-05-13T18:53:48.554Z,3.87
2023-05-13T18:56:16.642Z,4.57
2023-05-13T18:58:46.074Z,3.83
2023-05-13T19:01:15.448Z,4.40
2023-05-13T19:03:43.500Z,4.30
2023-05-13T19:06:11.519Z,4.10
2023-05-13T19:08:39.351Z,4.10
2023-05-13T19:11:08.692Z,5.47
2023-05-13T19:13:46.722Z,4.40
2023-05-13T19:16:15.391Z,3.90
2023-05-13T19:18:43.429Z,3.70
2023-05-13T19:21:11.471Z,4.23
2023-05-13T19:23:39.352Z,6.50
2023-05-13T19:26:08.702Z,6.10
2023-05-13T19:28:37.940Z,4.80
2023-05-13T19:31:06.306Z,5.47
2023-05-13T19:33:36.913Z,6.87
2023-05-13T19:36:05.056Z,5.70
2023-05-13T19:38:32.962Z,5.20
2023-05-13T19:41:01.699Z,4.87
2023-05-13T19:43:30.927Z,6.90
2023-05-13T19:45:58.851Z,6.87
2023-05-13T19:48:28.386Z,6.77
2023-05-13T19:50:58.433Z,7.70
2023-05-13T19:53:26.641Z,8.10
2023-05-13T19:55:55.823Z,11.47
2023-05-13T19:58:23.834Z,8.10
2023-05-13T20:00:53.115Z,6.77
2023-05-13T20:03:21.166Z,5.60
2023-05-13T20:05:49.251Z,6.03
2023-05-13T20:08:17.111Z,5.83
2023-05-13T20:10:44.942Z,5.00
2023-05-13T20:13:12.850Z,18.50
2023-05-13T20:15:41.679Z,7.50
2023-05-13T20:18:10.947Z,6.23
2023-05-13T20:20:38.852Z,7.20
2023-05-13T20:23:06.808Z,10.47
2023-05-13T20:25:34.666Z,9.67
2023-05-13T20:28:02.534Z,8.43
2023-05-13T20:30:30.513Z,10.53
2023-05-13T20:32:58.467Z,12.70
2023-05-13T20:35:27.702Z,13.13
2023-05-13T20:37:57.248Z,12.10
2023-05-13T20:40:25.360Z,6.70
2023-05-13T20:42:53.403Z,5.93
2023-05-13T20:45:21.473Z,5.40
2023-05-13T20:47:49.410Z,6.23
2023-05-13T20:50:17.394Z,4.47
2023-05-13T20:52:46.687Z,4.80
2023-05-13T20:55:15.510Z,7.30
2023-05-13T20:57:44.179Z,6.70
2023-05-13T21:00:13.584Z,4.40
2023-05-13T21:02:41.608Z,5.80
2023-05-13T21:05:09.928Z,4.70
2023-05-13T21:07:38.052Z,6.93
2023-05-13T21:10:08.603Z,4.43
2023-05-13T21:12:36.453Z,4.30
2023-05-13T21:15:04.516Z,5.13
2023-05-13T21:17:32.398Z,4.83
2023-05-13T21:20:00.322Z,4.87
2023-05-13T21:22:28.203Z,5.50
2023-05-13T21:24:56.559Z,4.50
2023-05-13T21:27:25.905Z,9.47
2023-05-13T21:29:53.735Z,4.83
2023-05-13T21:32:21.700Z,4.90
2023-05-13T21:34:49.532Z,5.90
2023-05-13T21:37:17.384Z,6.40
2023-05-13T21:39:45.231Z,5.67
2023-05-13T21:42:13.165Z,5.20
2023-05-13T21:44:42.397Z,13.30
2023-05-13T21:47:10.257Z,10.43
2023-05-13T21:49:38.112Z,6.53
2023-05-13T21:52:06.660Z,7.63
2023-05-13T21:54:34.482Z,6.03
2023-05-13T21:57:02.612Z,5.83
2023-05-13T21:59:30.497Z,5.90
2023-05-13T22:01:59.847Z,5.33
2023-05-13T22:04:27.781Z,5.70
2023-05-13T22:06:56.373Z,7.63
2023-05-13T22:09:24.368Z,20.27
2023-05-13T22:11:52.269Z,5.90
2023-05-13T22:14:20.368Z,7.30
2023-05-13T22:17:00.859Z,27.40
2023-05-13T22:19:37.453Z,5.80
2023-05-13T22:22:05.694Z,7.33
2023-05-13T22:24:34.111Z,6.10
2023-05-13T22:27:01.977Z,5.17
2023-05-13T22:29:29.917Z,4.90
2023-05-13T22:31:58.371Z,5.20
2023-05-13T22:34:26.960Z,5.67
2023-05-13T22:36:56.222Z,5.23
2023-05-13T22:39:26.732Z,5.60
2023-05-13T22:41:55.676Z,4.70
2023-05-13T22:44:24.105Z,6.23
2023-05-13T22:46:54.019Z,6.77
2023-05-13T22:49:22.284Z,7.10
2023-05-13T22:51:50.183Z,4.67
2023-05-13T22:54:19.421Z,5.77
2023-05-13T22:56:47.256Z,7.13
2023-05-13T22:59:15.112Z,5.13
2023-05-13T23:01:42.981Z,4.77
2023-05-13T23:04:10.894Z,5.40
2023-05-13T23:06:38.781Z,6.20
2023-05-13T23:09:07.567Z,5.83
2023-05-13T23:11:37.663Z,6.40
2023-05-13T23:14:05.498Z,5.73
2023-05-13T23:16:33.861Z,5.30
2023-05-13T23:19:02.068Z,6.57
2023-05-13T23:21:30.048Z,9.67
2023-05-13T23:23:58.276Z,6.80
2023-05-13T23:26:26.538Z,6.30
2023-05-13T23:28:56.002Z,6.00
2023-05-13T23:31:23.946Z,5.77
2023-05-13T23:33:52.210Z,5.70
2023-05-13T23:36:20.058Z,6.30
2023-05-13T23:38:47.982Z,9.17
2023-05-13T23:41:15.850Z,7.00
2023-05-13T23:43:43.660Z,6.90
2023-05-13T23:46:12.863Z,6.97
2023-05-13T23:48:40.719Z,8.63
2023-05-13T23:51:08.738Z,8.13
2023-05-13T23:53:36.647Z,8.40
2023-05-13T23:56:04.986Z,9.60
2023-05-13T23:58:32.831Z,12.27
